Burbank, Oklahoma
Current Conditions -  °F | °C
As of 6:53 AM on Friday 28 Nov 2014 (Local Time) from KPNC Reporting Station
Clear Clear  
Wind Chill: 38°   Ceiling: Unl
Heat Index: 42°   Visibility: 10mi
Dew Point: 27°   Wind: 7mph
Humidity: 55%   Direction: 180°S
Pressure: 30.07"   Gusts: NA
Location:  36.7°N, 96.73°W
Report Text: KPNC 281253Z AUTO 18006KT 10SM CLR 06/M03 A3007 RMK AO2 SLP183 T00561028
Loading
Personal Weather Stations






























Interactive Weather Map New forecast layout! Learn more

10-Day Weather Forecast

Advertisements
Track Severe Weather on mobile